sensor_id;sensor_type;location;lat;lon;timestamp;P1;durP1;ratioP1;P2;durP2;ratioP2
66093;SDS011;52876;49.394;10.892;2023-01-23T00:01:17;25.37;;;16.17;;
66093;SDS011;52876;49.394;10.892;2023-01-23T00:03:45;19.97;;;13.90;;
66093;SDS011;52876;49.394;10.892;2023-01-23T00:06:13;26.27;;;16.53;;
66093;SDS011;52876;49.394;10.892;2023-01-23T00:08:40;30.20;;;17.80;;
66093;SDS011;52876;49.394;10.892;2023-01-23T00:11:07;33.07;;;19.83;;
66093;SDS011;52876;49.394;10.892;2023-01-23T00:13:35;32.07;;;18.47;;
66093;SDS011;52876;49.394;10.892;2023-01-23T00:16:05;23.93;;;15.90;;
66093;SDS011;52876;49.394;10.892;2023-01-23T00:18:31;28.10;;;17.70;;
66093;SDS011;52876;49.394;10.892;2023-01-23T00:20:57;29.90;;;18.27;;
66093;SDS011;52876;49.394;10.892;2023-01-23T00:23:22;24.13;;;16.13;;
66093;SDS011;52876;49.394;10.892;2023-01-23T00:25:50;26.50;;;17.70;;
66093;SDS011;52876;49.394;10.892;2023-01-23T00:28:15;22.57;;;14.60;;
66093;SDS011;52876;49.394;10.892;2023-01-23T00:30:43;23.80;;;15.87;;
66093;SDS011;52876;49.394;10.892;2023-01-23T00:33:10;24.10;;;15.47;;
66093;SDS011;52876;49.394;10.892;2023-01-23T00:35:35;23.60;;;14.67;;
66093;SDS011;52876;49.394;10.892;2023-01-23T00:38:01;27.13;;;15.97;;
66093;SDS011;52876;49.394;10.892;2023-01-23T00:40:27;22.73;;;12.43;;
66093;SDS011;52876;49.394;10.892;2023-01-23T00:42:52;23.17;;;14.90;;
66093;SDS011;52876;49.394;10.892;2023-01-23T00:45:18;23.17;;;15.77;;
66093;SDS011;52876;49.394;10.892;2023-01-23T00:47:45;22.20;;;14.80;;
66093;SDS011;52876;49.394;10.892;2023-01-23T00:50:12;21.50;;;14.83;;
66093;SDS011;52876;49.394;10.892;2023-01-23T00:52:40;24.83;;;15.50;;
66093;SDS011;52876;49.394;10.892;2023-01-23T00:55:06;22.90;;;15.20;;
66093;SDS011;52876;49.394;10.892;2023-01-23T00:57:34;26.40;;;15.67;;
66093;SDS011;52876;49.394;10.892;2023-01-23T01:00:00;21.33;;;14.83;;
66093;SDS011;52876;49.394;10.892;2023-01-23T01:02:27;21.20;;;14.87;;
66093;SDS011;52876;49.394;10.892;2023-01-23T01:04:53;23.13;;;15.13;;
66093;SDS011;52876;49.394;10.892;2023-01-23T01:07:20;23.37;;;14.47;;
66093;SDS011;52876;49.394;10.892;2023-01-23T01:09:46;23.00;;;14.73;;
66093;SDS011;52876;49.394;10.892;2023-01-23T01:12:13;19.80;;;14.13;;
66093;SDS011;52876;49.394;10.892;2023-01-23T01:14:38;21.20;;;14.60;;
66093;SDS011;52876;49.394;10.892;2023-01-23T01:17:04;24.80;;;15.63;;
66093;SDS011;52876;49.394;10.892;2023-01-23T01:19:30;26.13;;;16.17;;
66093;SDS011;52876;49.394;10.892;2023-01-23T01:21:56;19.80;;;13.17;;
66093;SDS011;52876;49.394;10.892;2023-01-23T01:24:23;23.27;;;15.67;;
66093;SDS011;52876;49.394;10.892;2023-01-23T01:26:48;29.83;;;20.47;;
66093;SDS011;52876;49.394;10.892;2023-01-23T01:29:14;34.30;;;22.93;;
66093;SDS011;52876;49.394;10.892;2023-01-23T01:31:40;28.07;;;16.73;;
66093;SDS011;52876;49.394;10.892;2023-01-23T01:34:05;27.20;;;16.90;;
66093;SDS011;52876;49.394;10.892;2023-01-23T01:36:32;22.17;;;14.70;;
66093;SDS011;52876;49.394;10.892;2023-01-23T01:38:58;30.30;;;16.77;;
66093;SDS011;52876;49.394;10.892;2023-01-23T01:41:25;29.23;;;16.77;;
66093;SDS011;52876;49.394;10.892;2023-01-23T01:43:51;28.80;;;16.80;;
66093;SDS011;52876;49.394;10.892;2023-01-23T01:46:19;32.00;;;18.23;;
66093;SDS011;52876;49.394;10.892;2023-01-23T01:48:48;28.97;;;16.60;;
66093;SDS011;52876;49.394;10.892;2023-01-23T01:51:20;30.00;;;17.80;;
66093;SDS011;52876;49.394;10.892;2023-01-23T01:53:48;38.47;;;21.80;;
66093;SDS011;52876;49.394;10.892;2023-01-23T01:56:16;32.00;;;18.73;;
66093;SDS011;52876;49.394;10.892;2023-01-23T01:58:45;21.37;;;14.00;;
66093;SDS011;52876;49.394;10.892;2023-01-23T02:01:14;29.97;;;17.87;;
66093;SDS011;52876;49.394;10.892;2023-01-23T02:03:40;24.87;;;15.40;;
66093;SDS011;52876;49.394;10.892;2023-01-23T02:06:09;25.67;;;15.37;;
66093;SDS011;52876;49.394;10.892;2023-01-23T02:08:36;27.80;;;16.80;;
66093;SDS011;52876;49.394;10.892;2023-01-23T02:11:08;22.87;;;15.77;;
66093;SDS011;52876;49.394;10.892;2023-01-23T02:13:35;27.20;;;17.10;;
66093;SDS011;52876;49.394;10.892;2023-01-23T02:16:03;21.97;;;14.33;;
66093;SDS011;52876;49.394;10.892;2023-01-23T02:18:31;20.57;;;14.53;;
66093;SDS011;52876;49.394;10.892;2023-01-23T02:21:01;28.80;;;17.00;;
66093;SDS011;52876;49.394;10.892;2023-01-23T02:23:32;28.23;;;16.70;;
66093;SDS011;52876;49.394;10.892;2023-01-23T02:26:08;25.70;;;15.83;;
66093;SDS011;52876;49.394;10.892;2023-01-23T02:28:39;28.23;;;17.67;;
66093;SDS011;52876;49.394;10.892;2023-01-23T02:31:07;26.47;;;17.13;;
66093;SDS011;52876;49.394;10.892;2023-01-23T02:33:43;22.57;;;14.57;;
66093;SDS011;52876;49.394;10.892;2023-01-23T02:36:13;26.93;;;16.70;;
66093;SDS011;52876;49.394;10.892;2023-01-23T02:38:41;29.73;;;16.87;;
66093;SDS011;52876;49.394;10.892;2023-01-23T02:41:14;25.23;;;16.83;;
66093;SDS011;52876;49.394;10.892;2023-01-23T02:43:42;28.17;;;17.70;;
66093;SDS011;52876;49.394;10.892;2023-01-23T02:46:09;29.17;;;17.10;;
66093;SDS011;52876;49.394;10.892;2023-01-23T02:48:36;23.60;;;15.20;;
66093;SDS011;52876;49.394;10.892;2023-01-23T02:51:04;23.63;;;15.30;;
66093;SDS011;52876;49.394;10.892;2023-01-23T02:53:30;28.20;;;18.07;;
66093;SDS011;52876;49.394;10.892;2023-01-23T02:55:55;30.00;;;16.63;;
66093;SDS011;52876;49.394;10.892;2023-01-23T02:58:22;27.93;;;17.00;;
66093;SDS011;52876;49.394;10.892;2023-01-23T03:00:50;31.03;;;18.40;;
66093;SDS011;52876;49.394;10.892;2023-01-23T03:03:15;24.00;;;15.83;;
66093;SDS011;52876;49.394;10.892;2023-01-23T03:05:43;28.43;;;17.53;;
66093;SDS011;52876;49.394;10.892;2023-01-23T03:08:08;27.20;;;16.60;;
66093;SDS011;52876;49.394;10.892;2023-01-23T03:10:36;26.97;;;17.63;;
66093;SDS011;52876;49.394;10.892;2023-01-23T03:13:01;28.73;;;17.70;;
66093;SDS011;52876;49.394;10.892;2023-01-23T03:15:29;30.83;;;16.40;;
66093;SDS011;52876;49.394;10.892;2023-01-23T03:17:54;29.77;;;17.90;;
66093;SDS011;52876;49.394;10.892;2023-01-23T03:20:22;28.43;;;17.03;;
66093;SDS011;52876;49.394;10.892;2023-01-23T03:22:47;26.77;;;17.17;;
66093;SDS011;52876;49.394;10.892;2023-01-23T03:25:15;30.60;;;18.93;;
66093;SDS011;52876;49.394;10.892;2023-01-23T03:27:42;32.47;;;18.33;;
66093;SDS011;52876;49.394;10.892;2023-01-23T03:30:09;33.07;;;18.40;;
66093;SDS011;52876;49.394;10.892;2023-01-23T03:32:39;32.07;;;17.90;;
66093;SDS011;52876;49.394;10.892;2023-01-23T03:35:05;34.77;;;19.00;;
66093;SDS011;52876;49.394;10.892;2023-01-23T03:37:34;23.90;;;15.50;;
66093;SDS011;52876;49.394;10.892;2023-01-23T03:39:59;36.70;;;19.53;;
66093;SDS011;52876;49.394;10.892;2023-01-23T03:42:27;32.37;;;19.13;;
66093;SDS011;52876;49.394;10.892;2023-01-23T03:44:52;28.27;;;18.50;;
66093;SDS011;52876;49.394;10.892;2023-01-23T03:47:19;32.87;;;18.93;;
66093;SDS011;52876;49.394;10.892;2023-01-23T03:49:46;36.20;;;20.03;;
66093;SDS011;52876;49.394;10.892;2023-01-23T03:52:12;32.83;;;19.37;;
66093;SDS011;52876;49.394;10.892;2023-01-23T03:54:38;33.93;;;18.50;;
66093;SDS011;52876;49.394;10.892;2023-01-23T03:57:04;27.80;;;17.20;;
66093;SDS011;52876;49.394;10.892;2023-01-23T03:59:30;30.40;;;19.03;;
66093;SDS011;52876;49.394;10.892;2023-01-23T04:01:55;31.40;;;18.00;;
66093;SDS011;52876;49.394;10.892;2023-01-23T04:04:21;33.60;;;18.73;;
66093;SDS011;52876;49.394;10.892;2023-01-23T04:06:48;35.30;;;19.83;;
66093;SDS011;52876;49.394;10.892;2023-01-23T04:09:14;33.13;;;19.30;;
66093;SDS011;52876;49.394;10.892;2023-01-23T04:11:41;31.93;;;19.53;;
66093;SDS011;52876;49.394;10.892;2023-01-23T04:14:07;33.20;;;17.97;;
66093;SDS011;52876;49.394;10.892;2023-01-23T04:16:33;28.33;;;16.50;;
66093;SDS011;52876;49.394;10.892;2023-01-23T04:18:59;29.77;;;18.53;;
66093;SDS011;52876;49.394;10.892;2023-01-23T04:21:24;31.87;;;19.37;;
66093;SDS011;52876;49.394;10.892;2023-01-23T04:23:51;24.37;;;16.10;;
66093;SDS011;52876;49.394;10.892;2023-01-23T04:26:18;27.73;;;16.57;;
66093;SDS011;52876;49.394;10.892;2023-01-23T04:28:44;28.60;;;17.30;;
66093;SDS011;52876;49.394;10.892;2023-01-23T04:31:10;19.23;;;13.47;;
66093;SDS011;52876;49.394;10.892;2023-01-23T04:33:35;25.40;;;16.80;;
66093;SDS011;52876;49.394;10.892;2023-01-23T04:36:03;26.07;;;15.27;;
66093;SDS011;52876;49.394;10.892;2023-01-23T04:38:30;22.10;;;13.13;;
66093;SDS011;52876;49.394;10.892;2023-01-23T04:40:59;23.73;;;15.33;;
66093;SDS011;52876;49.394;10.892;2023-01-23T04:43:25;20.83;;;13.93;;
66093;SDS011;52876;49.394;10.892;2023-01-23T04:45:53;21.70;;;14.47;;
66093;SDS011;52876;49.394;10.892;2023-01-23T04:48:19;23.13;;;15.17;;
66093;SDS011;52876;49.394;10.892;2023-01-23T04:50:45;19.37;;;12.53;;
66093;SDS011;52876;49.394;10.892;2023-01-23T04:53:11;21.20;;;14.60;;
66093;SDS011;52876;49.394;10.892;2023-01-23T04:55:37;22.07;;;14.20;;
66093;SDS011;52876;49.394;10.892;2023-01-23T04:58:04;18.27;;;12.20;;
66093;SDS011;52876;49.394;10.892;2023-01-23T05:00:31;22.10;;;13.93;;
66093;SDS011;52876;49.394;10.892;2023-01-23T05:02:57;20.20;;;13.20;;
66093;SDS011;52876;49.394;10.892;2023-01-23T05:05:24;20.77;;;12.67;;
66093;SDS011;52876;49.394;10.892;2023-01-23T05:07:50;19.30;;;12.73;;
66093;SDS011;52876;49.394;10.892;2023-01-23T05:10:18;16.00;;;11.30;;
66093;SDS011;52876;49.394;10.892;2023-01-23T05:12:45;18.40;;;13.20;;
66093;SDS011;52876;49.394;10.892;2023-01-23T05:15:13;19.93;;;14.60;;
66093;SDS011;52876;49.394;10.892;2023-01-23T05:17:40;20.13;;;13.83;;
66093;SDS011;52876;49.394;10.892;2023-01-23T05:20:06;22.60;;;12.97;;
66093;SDS011;52876;49.394;10.892;2023-01-23T05:22:34;20.63;;;14.03;;
66093;SDS011;52876;49.394;10.892;2023-01-23T05:24:59;19.93;;;13.50;;
66093;SDS011;52876;49.394;10.892;2023-01-23T05:27:27;20.63;;;13.53;;
66093;SDS011;52876;49.394;10.892;2023-01-23T05:29:52;20.73;;;13.47;;
66093;SDS011;52876;49.394;10.892;2023-01-23T05:32:19;23.00;;;14.60;;
66093;SDS011;52876;49.394;10.892;2023-01-23T05:34:45;21.60;;;14.00;;
66093;SDS011;52876;49.394;10.892;2023-01-23T05:37:12;22.00;;;14.40;;
66093;SDS011;52876;49.394;10.892;2023-01-23T05:39:38;23.90;;;15.97;;
66093;SDS011;52876;49.394;10.892;2023-01-23T05:42:04;23.00;;;13.80;;
66093;SDS011;52876;49.394;10.892;2023-01-23T05:44:30;21.33;;;13.83;;
66093;SDS011;52876;49.394;10.892;2023-01-23T05:46:57;24.17;;;16.07;;
66093;SDS011;52876;49.394;10.892;2023-01-23T05:49:24;21.20;;;14.20;;
66093;SDS011;52876;49.394;10.892;2023-01-23T05:51:52;24.97;;;15.57;;
66093;SDS011;52876;49.394;10.892;2023-01-23T05:54:18;23.73;;;15.03;;
66093;SDS011;52876;49.394;10.892;2023-01-23T05:56:45;24.07;;;15.37;;
66093;SDS011;52876;49.394;10.892;2023-01-23T05:59:11;24.87;;;15.37;;
66093;SDS011;52876;49.394;10.892;2023-01-23T06:01:36;23.57;;;16.03;;
66093;SDS011;52876;49.394;10.892;2023-01-23T06:04:02;19.00;;;12.57;;
66093;SDS011;52876;49.394;10.892;2023-01-23T06:06:31;22.37;;;14.97;;
66093;SDS011;52876;49.394;10.892;2023-01-23T06:08:57;24.33;;;14.47;;
66093;SDS011;52876;49.394;10.892;2023-01-23T06:11:23;23.20;;;14.70;;
66093;SDS011;52876;49.394;10.892;2023-01-23T06:13:48;22.67;;;13.67;;
66093;SDS011;52876;49.394;10.892;2023-01-23T06:16:19;24.63;;;15.93;;
66093;SDS011;52876;49.394;10.892;2023-01-23T06:18:44;24.17;;;15.30;;
66093;SDS011;52876;49.394;10.892;2023-01-23T06:21:11;23.40;;;15.77;;
66093;SDS011;52876;49.394;10.892;2023-01-23T06:23:38;24.03;;;15.27;;
66093;SDS011;52876;49.394;10.892;2023-01-23T06:26:04;23.57;;;15.50;;
66093;SDS011;52876;49.394;10.892;2023-01-23T06:28:30;26.17;;;14.73;;
66093;SDS011;52876;49.394;10.892;2023-01-23T06:30:58;21.00;;;13.33;;
66093;SDS011;52876;49.394;10.892;2023-01-23T06:33:25;23.00;;;15.10;;
66093;SDS011;52876;49.394;10.892;2023-01-23T06:35:55;21.40;;;14.33;;
66093;SDS011;52876;49.394;10.892;2023-01-23T06:38:21;23.40;;;14.53;;
66093;SDS011;52876;49.394;10.892;2023-01-23T06:40:48;21.90;;;15.10;;
66093;SDS011;52876;49.394;10.892;2023-01-23T06:43:14;22.07;;;14.10;;
66093;SDS011;52876;49.394;10.892;2023-01-23T06:45:42;18.90;;;13.60;;
66093;SDS011;52876;49.394;10.892;2023-01-23T06:48:08;21.83;;;13.40;;
66093;SDS011;52876;49.394;10.892;2023-01-23T06:50:39;21.27;;;14.00;;
66093;SDS011;52876;49.394;10.892;2023-01-23T06:53:06;19.60;;;14.77;;
66093;SDS011;52876;49.394;10.892;2023-01-23T06:55:34;25.17;;;14.90;;
66093;SDS011;52876;49.394;10.892;2023-01-23T06:58:01;23.53;;;15.97;;
66093;SDS011;52876;49.394;10.892;2023-01-23T07:00:28;24.53;;;15.50;;
66093;SDS011;52876;49.394;10.892;2023-01-23T07:02:54;20.60;;;14.67;;
66093;SDS011;52876;49.394;10.892;2023-01-23T07:05:21;22.00;;;14.57;;
66093;SDS011;52876;49.394;10.892;2023-01-23T07:07:49;17.00;;;13.00;;
66093;SDS011;52876;49.394;10.892;2023-01-23T07:10:15;21.23;;;14.87;;
66093;SDS011;52876;49.394;10.892;2023-01-23T07:12:43;20.87;;;13.47;;
66093;SDS011;52876;49.394;10.892;2023-01-23T07:15:10;22.00;;;14.90;;
66093;SDS011;52876;49.394;10.892;2023-01-23T07:17:37;20.57;;;15.53;;
66093;SDS011;52876;49.394;10.892;2023-01-23T07:20:03;22.27;;;15.50;;
66093;SDS011;52876;49.394;10.892;2023-01-23T07:22:31;27.60;;;17.63;;
66093;SDS011;52876;49.394;10.892;2023-01-23T07:24:57;24.00;;;15.90;;
66093;SDS011;52876;49.394;10.892;2023-01-23T07:27:24;23.40;;;16.10;;
66093;SDS011;52876;49.394;10.892;2023-01-23T07:29:50;24.40;;;16.90;;
66093;SDS011;52876;49.394;10.892;2023-01-23T07:32:17;29.00;;;16.90;;
66093;SDS011;52876;49.394;10.892;2023-01-23T07:34:43;28.70;;;17.30;;
66093;SDS011;52876;49.394;10.892;2023-01-23T07:37:10;29.00;;;17.83;;
66093;SDS011;52876;49.394;10.892;2023-01-23T07:39:36;24.30;;;15.80;;
66093;SDS011;52876;49.394;10.892;2023-01-23T07:42:03;24.83;;;15.40;;
66093;SDS011;52876;49.394;10.892;2023-01-23T07:44:29;21.77;;;13.93;;
66093;SDS011;52876;49.394;10.892;2023-01-23T07:46:56;25.30;;;16.13;;
66093;SDS011;52876;49.394;10.892;2023-01-23T07:49:23;22.27;;;14.90;;
66093;SDS011;52876;49.394;10.892;2023-01-23T07:51:51;25.00;;;17.23;;
66093;SDS011;52876;49.394;10.892;2023-01-23T07:54:16;24.30;;;15.20;;
66093;SDS011;52876;49.394;10.892;2023-01-23T07:56:43;24.47;;;17.00;;
66093;SDS011;52876;49.394;10.892;2023-01-23T07:59:10;27.47;;;18.77;;
66093;SDS011;52876;49.394;10.892;2023-01-23T08:01:36;28.70;;;17.50;;
66093;SDS011;52876;49.394;10.892;2023-01-23T08:04:01;27.43;;;18.07;;
66093;SDS011;52876;49.394;10.892;2023-01-23T08:06:30;22.03;;;16.10;;
66093;SDS011;52876;49.394;10.892;2023-01-23T08:08:56;26.83;;;18.30;;
66093;SDS011;52876;49.394;10.892;2023-01-23T08:11:21;23.77;;;15.97;;
66093;SDS011;52876;49.394;10.892;2023-01-23T08:13:47;26.57;;;16.40;;
66093;SDS011;52876;49.394;10.892;2023-01-23T08:16:13;24.53;;;16.80;;
66093;SDS011;52876;49.394;10.892;2023-01-23T08:18:39;23.03;;;16.57;;
66093;SDS011;52876;49.394;10.892;2023-01-23T08:21:06;20.50;;;15.67;;
66093;SDS011;52876;49.394;10.892;2023-01-23T08:23:34;27.73;;;17.73;;
66093;SDS011;52876;49.394;10.892;2023-01-23T08:26:01;27.57;;;20.13;;
66093;SDS011;52876;49.394;10.892;2023-01-23T08:28:28;35.77;;;29.10;;
66093;SDS011;52876;49.394;10.892;2023-01-23T08:30:54;29.03;;;22.27;;
66093;SDS011;52876;49.394;10.892;2023-01-23T08:33:23;27.07;;;19.60;;
66093;SDS011;52876;49.394;10.892;2023-01-23T08:35:51;27.27;;;20.40;;
66093;SDS011;52876;49.394;10.892;2023-01-23T08:38:17;26.50;;;20.70;;
66093;SDS011;52876;49.394;10.892;2023-01-23T08:40:46;25.10;;;18.70;;
66093;SDS011;52876;49.394;10.892;2023-01-23T08:43:13;25.47;;;19.03;;
66093;SDS011;52876;49.394;10.892;2023-01-23T08:45:40;23.63;;;15.80;;
66093;SDS011;52876;49.394;10.892;2023-01-23T08:48:06;21.33;;;16.47;;
66093;SDS011;52876;49.394;10.892;2023-01-23T08:50:34;27.00;;;18.10;;
66093;SDS011;52876;49.394;10.892;2023-01-23T08:52:59;27.70;;;21.20;;
66093;SDS011;52876;49.394;10.892;2023-01-23T08:55:25;27.97;;;20.10;;
66093;SDS011;52876;49.394;10.892;2023-01-23T08:57:52;30.90;;;22.90;;
66093;SDS011;52876;49.394;10.892;2023-01-23T09:00:18;34.90;;;25.97;;
66093;SDS011;52876;49.394;10.892;2023-01-23T09:02:46;28.90;;;20.80;;
66093;SDS011;52876;49.394;10.892;2023-01-23T09:05:12;25.20;;;17.30;;
66093;SDS011;52876;49.394;10.892;2023-01-23T09:07:39;24.87;;;18.17;;
66093;SDS011;52876;49.394;10.892;2023-01-23T09:10:06;25.70;;;17.20;;
66093;SDS011;52876;49.394;10.892;2023-01-23T09:12:35;28.47;;;21.00;;
66093;SDS011;52876;49.394;10.892;2023-01-23T09:15:02;29.20;;;20.10;;
66093;SDS011;52876;49.394;10.892;2023-01-23T09:17:30;26.40;;;20.13;;
66093;SDS011;52876;49.394;10.892;2023-01-23T09:19:56;29.93;;;22.07;;
66093;SDS011;52876;49.394;10.892;2023-01-23T09:22:22;33.93;;;24.43;;
66093;SDS011;52876;49.394;10.892;2023-01-23T09:24:48;25.60;;;18.40;;
66093;SDS011;52876;49.394;10.892;2023-01-23T09:27:15;26.10;;;18.20;;
66093;SDS011;52876;49.394;10.892;2023-01-23T09:29:41;24.67;;;16.63;;
66093;SDS011;52876;49.394;10.892;2023-01-23T09:32:10;32.67;;;24.20;;
66093;SDS011;52876;49.394;10.892;2023-01-23T09:34:36;26.53;;;19.30;;
66093;SDS011;52876;49.394;10.892;2023-01-23T09:37:03;31.90;;;23.97;;
66093;SDS011;52876;49.394;10.892;2023-01-23T09:39:29;30.93;;;24.43;;
66093;SDS011;52876;49.394;10.892;2023-01-23T09:41:57;36.17;;;27.63;;
66093;SDS011;52876;49.394;10.892;2023-01-23T09:44:28;24.67;;;19.10;;
66093;SDS011;52876;49.394;10.892;2023-01-23T09:47:01;28.90;;;19.00;;
66093;SDS011;52876;49.394;10.892;2023-01-23T09:49:36;31.40;;;22.80;;
66093;SDS011;52876;49.394;10.892;2023-01-23T09:52:10;35.10;;;24.60;;
66093;SDS011;52876;49.394;10.892;2023-01-23T09:54:39;35.63;;;26.87;;
66093;SDS011;52876;49.394;10.892;2023-01-23T09:57:11;42.93;;;32.00;;
66093;SDS011;52876;49.394;10.892;2023-01-23T09:59:39;23.07;;;17.70;;
66093;SDS011;52876;49.394;10.892;2023-01-23T10:02:14;31.43;;;23.30;;
66093;SDS011;52876;49.394;10.892;2023-01-23T10:04:43;38.53;;;30.20;;
66093;SDS011;52876;49.394;10.892;2023-01-23T10:07:16;33.90;;;24.70;;
66093;SDS011;52876;49.394;10.892;2023-01-23T10:10:18;37.83;;;29.40;;
66093;SDS011;52876;49.394;10.892;2023-01-23T10:13:03;19.00;;;13.23;;
66093;SDS011;52876;49.394;10.892;2023-01-23T10:15:35;25.27;;;18.93;;
66093;SDS011;52876;49.394;10.892;2023-01-23T10:18:17;36.53;;;26.43;;
66093;SDS011;52876;49.394;10.892;2023-01-23T10:20:56;23.53;;;17.60;;
66093;SDS011;52876;49.394;10.892;2023-01-23T10:23:35;25.80;;;17.27;;
66093;SDS011;52876;49.394;10.892;2023-01-23T10:26:10;23.70;;;16.80;;
66093;SDS011;52876;49.394;10.892;2023-01-23T10:28:39;22.23;;;18.93;;
66093;SDS011;52876;49.394;10.892;2023-01-23T10:31:09;27.53;;;24.50;;
66093;SDS011;52876;49.394;10.892;2023-01-23T10:33:41;28.40;;;22.70;;
66093;SDS011;52876;49.394;10.892;2023-01-23T10:36:18;17.77;;;13.30;;
66093;SDS011;52876;49.394;10.892;2023-01-23T10:38:48;22.53;;;17.13;;
66093;SDS011;52876;49.394;10.892;2023-01-23T10:41:21;17.77;;;15.10;;
66093;SDS011;52876;49.394;10.892;2023-01-23T10:43:48;17.20;;;13.23;;
66093;SDS011;52876;49.394;10.892;2023-01-23T10:46:17;19.30;;;14.90;;
66093;SDS011;52876;49.394;10.892;2023-01-23T10:48:44;18.53;;;13.43;;
66093;SDS011;52876;49.394;10.892;2023-01-23T10:51:24;15.77;;;10.23;;
66093;SDS011;52876;49.394;10.892;2023-01-23T10:54:02;18.90;;;14.00;;
66093;SDS011;52876;49.394;10.892;2023-01-23T10:56:29;26.03;;;20.50;;
66093;SDS011;52876;49.394;10.892;2023-01-23T10:58:56;26.93;;;21.20;;
66093;SDS011;52876;49.394;10.892;2023-01-23T11:01:25;17.10;;;13.00;;
66093;SDS011;52876;49.394;10.892;2023-01-23T11:03:51;19.20;;;15.93;;
66093;SDS011;52876;49.394;10.892;2023-01-23T11:06:19;24.30;;;20.10;;
66093;SDS011;52876;49.394;10.892;2023-01-23T11:08:50;29.47;;;24.07;;
66093;SDS011;52876;49.394;10.892;2023-01-23T11:11:21;22.10;;;16.00;;
66093;SDS011;52876;49.394;10.892;2023-01-23T11:13:49;18.87;;;16.17;;
66093;SDS011;52876;49.394;10.892;2023-01-23T11:16:27;21.07;;;18.53;;
66093;SDS011;52876;49.394;10.892;2023-01-23T11:18:55;18.67;;;16.17;;
66093;SDS011;52876;49.394;10.892;2023-01-23T11:21:37;18.50;;;15.83;;
66093;SDS011;52876;49.394;10.892;2023-01-23T11:24:21;26.90;;;24.10;;
66093;SDS011;52876;49.394;10.892;2023-01-23T11:26:56;19.23;;;17.23;;
66093;SDS011;52876;49.394;10.892;2023-01-23T11:29:24;18.33;;;15.97;;
66093;SDS011;52876;49.394;10.892;2023-01-23T11:31:54;18.63;;;11.70;;
66093;SDS011;52876;49.394;10.892;2023-01-23T11:34:25;18.80;;;16.60;;
66093;SDS011;52876;49.394;10.892;2023-01-23T11:36:56;16.70;;;14.43;;
66093;SDS011;52876;49.394;10.892;2023-01-23T11:39:36;13.80;;;11.40;;
66093;SDS011;52876;49.394;10.892;2023-01-23T11:42:13;18.07;;;14.23;;
66093;SDS011;52876;49.394;10.892;2023-01-23T11:44:40;14.43;;;12.77;;
66093;SDS011;52876;49.394;10.892;2023-01-23T11:47:15;13.80;;;11.17;;
66093;SDS011;52876;49.394;10.892;2023-01-23T11:49:59;14.70;;;11.50;;
66093;SDS011;52876;49.394;10.892;2023-01-23T11:52:39;16.10;;;12.40;;
66093;SDS011;52876;49.394;10.892;2023-01-23T11:55:21;13.57;;;10.73;;
66093;SDS011;52876;49.394;10.892;2023-01-23T11:58:00;17.63;;;12.00;;
66093;SDS011;52876;49.394;10.892;2023-01-23T12:00:34;14.60;;;11.93;;
66093;SDS011;52876;49.394;10.892;2023-01-23T12:03:13;16.33;;;12.67;;
66093;SDS011;52876;49.394;10.892;2023-01-23T12:09:04;14.70;;;11.47;;
66093;SDS011;52876;49.394;10.892;2023-01-23T12:11:39;15.17;;;11.50;;
66093;SDS011;52876;49.394;10.892;2023-01-23T12:14:23;13.83;;;10.70;;
66093;SDS011;52876;49.394;10.892;2023-01-23T12:17:04;13.70;;;10.90;;
66093;SDS011;52876;49.394;10.892;2023-01-23T12:19:43;12.80;;;10.83;;
66093;SDS011;52876;49.394;10.892;2023-01-23T12:22:26;16.53;;;12.50;;
66093;SDS011;52876;49.394;10.892;2023-01-23T12:25:00;17.57;;;12.37;;
66093;SDS011;52876;49.394;10.892;2023-01-23T12:27:38;14.53;;;11.70;;
66093;SDS011;52876;49.394;10.892;2023-01-23T12:30:11;16.13;;;10.97;;
66093;SDS011;52876;49.394;10.892;2023-01-23T12:33:10;14.40;;;11.40;;
66093;SDS011;52876;49.394;10.892;2023-01-23T12:35:54;16.90;;;12.47;;
66093;SDS011;52876;49.394;10.892;2023-01-23T12:38:27;15.13;;;12.17;;
66093;SDS011;52876;49.394;10.892;2023-01-23T12:41:01;13.80;;;11.00;;
66093;SDS011;52876;49.394;10.892;2023-01-23T12:43:37;16.57;;;12.33;;
66093;SDS011;52876;49.394;10.892;2023-01-23T12:46:10;18.47;;;13.23;;
66093;SDS011;52876;49.394;10.892;2023-01-23T12:48:40;17.33;;;12.40;;
66093;SDS011;52876;49.394;10.892;2023-01-23T12:51:11;18.00;;;13.77;;
66093;SDS011;52876;49.394;10.892;2023-01-23T12:53:43;17.53;;;12.50;;
66093;SDS011;52876;49.394;10.892;2023-01-23T12:56:14;18.63;;;11.97;;
66093;SDS011;52876;49.394;10.892;2023-01-23T12:58:46;13.43;;;10.23;;
66093;SDS011;52876;49.394;10.892;2023-01-23T13:01:22;16.83;;;12.23;;
66093;SDS011;52876;49.394;10.892;2023-01-23T13:04:11;16.07;;;11.73;;
66093;SDS011;52876;49.394;10.892;2023-01-23T13:06:50;15.63;;;12.17;;
66093;SDS011;52876;49.394;10.892;2023-01-23T13:09:28;16.93;;;12.67;;
66093;SDS011;52876;49.394;10.892;2023-01-23T13:12:06;18.97;;;13.47;;
66093;SDS011;52876;49.394;10.892;2023-01-23T13:14:39;17.67;;;12.23;;
66093;SDS011;52876;49.394;10.892;2023-01-23T13:17:14;20.50;;;14.50;;
66093;SDS011;52876;49.394;10.892;2023-01-23T13:22:53;15.57;;;12.00;;
66093;SDS011;52876;49.394;10.892;2023-01-23T13:25:20;17.73;;;13.70;;
66093;SDS011;52876;49.394;10.892;2023-01-23T13:27:48;18.07;;;14.23;;
66093;SDS011;52876;49.394;10.892;2023-01-23T13:30:39;20.03;;;15.63;;
66093;SDS011;52876;49.394;10.892;2023-01-23T13:36:28;17.80;;;12.83;;
66093;SDS011;52876;49.394;10.892;2023-01-23T13:39:00;14.40;;;12.67;;
66093;SDS011;52876;49.394;10.892;2023-01-23T13:41:30;15.93;;;12.60;;
66093;SDS011;52876;49.394;10.892;2023-01-23T13:44:03;14.70;;;12.27;;
66093;SDS011;52876;49.394;10.892;2023-01-23T13:46:46;14.10;;;10.77;;
66093;SDS011;52876;49.394;10.892;2023-01-23T13:49:22;14.03;;;10.90;;
66093;SDS011;52876;49.394;10.892;2023-01-23T13:51:56;14.57;;;10.97;;
66093;SDS011;52876;49.394;10.892;2023-01-23T13:54:24;13.57;;;10.60;;
66093;SDS011;52876;49.394;10.892;2023-01-23T13:56:54;14.13;;;10.60;;
66093;SDS011;52876;49.394;10.892;2023-01-23T13:59:24;15.20;;;10.40;;
66093;SDS011;52876;49.394;10.892;2023-01-23T14:01:57;14.43;;;10.53;;
66093;SDS011;52876;49.394;10.892;2023-01-23T14:04:38;16.80;;;11.20;;
66093;SDS011;52876;49.394;10.892;2023-01-23T14:07:21;16.80;;;12.03;;
66093;SDS011;52876;49.394;10.892;2023-01-23T14:09:47;17.10;;;13.50;;
66093;SDS011;52876;49.394;10.892;2023-01-23T14:12:15;15.10;;;11.67;;
66093;SDS011;52876;49.394;10.892;2023-01-23T14:14:41;16.37;;;11.83;;
66093;SDS011;52876;49.394;10.892;2023-01-23T14:17:08;14.90;;;11.60;;
66093;SDS011;52876;49.394;10.892;2023-01-23T14:19:37;18.10;;;14.00;;
66093;SDS011;52876;49.394;10.892;2023-01-23T14:22:13;16.77;;;12.20;;
66093;SDS011;52876;49.394;10.892;2023-01-23T14:24:41;15.37;;;12.20;;
66093;SDS011;52876;49.394;10.892;2023-01-23T14:27:15;14.80;;;11.03;;
66093;SDS011;52876;49.394;10.892;2023-01-23T14:29:54;14.70;;;11.07;;